Terminal Aerodrome Forecast
Issued by NWS

Home | Current Version | Previous Version | Text Only | Print | Product List | Glossary On
Versions: 1 2 3 4 5 6 7 8 9 10 11 12 13 14 15 16 17 18 19 20 21 22 23 24 25 26 27 28 29 30 31 32 33 34 35 36
395
FTUS43 KPAH 022201 AAA
TAFOWB
TAF AMD
KOWB 022201Z 0222/0318 32008KT P6SM BKN035 OVC080
     FM030300 34006KT P6SM OVC030
      TEMPO 0309/0312 4SM BR
     FM031230 34006KT P6SM BKN018 OVC040=

USA.gov is the U.S. government's official web portal to all federal, state and local government web resources and services.